Share

Akinci, Turkey

Cayyolu (IANKARAA7) Elev 3114 ft | 39.87 °N, 32.67 °E | Change Station

Current weather conditions updated 0 second ago

Scattered Clouds
Scattered Clouds
45.1 °F
Feels Like 45 °F
N
0.0
Wind Variable Wind from ESE
Gusts 0.0 mph
Sunrise 6:06 AM
Sunset 7:32 PM
Moon Waning Gibbous

Today is forecast to be Cooler than yesterday.

Pressure 29.89 in
Visibility 6.2 miles
Clouds Scattered Clouds 4000 ft
Windchill 45 °F
Dew Point 35 °F
Humidity 67%
Rainfall 0.00 in
Snow Depth Not available.
UV 0 out of 16
Pollen Not available.
Air Quality Not available.
Flu Activity Not available.
METAR LTAC 190020Z 06003KT 040V110 9999 SCT040 06/03 Q1012 NOSIG

More Conditions Fewer Conditions

Pressure 29.89 in
Visibility 6.2 miles
Clouds Scattered Clouds 4000 ft
Windchill 45 °F
Dew Point 35 °F
Humidity 67%
Rainfall 0.00 in
Snow Depth Not available.
UV 0 out of 16
Pollen Not available.
Air Quality Not available.
Flu Activity Not available.
METAR LTAC 190020Z 06003KT 040V110 9999 SCT040 06/03 Q1012 NOSIG

More Conditions Fewer Conditions

10-Day Weather Forecast

Almanac

Astronomy

Apr. 19, 2014 Rise Set
Actual Time 6:06 AM EEST 7:32 PM EEST
Civil Twilight 5:38 AM EEST 8:00 PM EEST
Nautical Twilight 5:04 AM EEST 8:34 PM EEST
Astronomical Twilight 4:28 AM EEST 9:10 PM EEST
Moon 11:54 PM EEST 9:05 AM EEST
Length of Visible Light 14h 22m
Length of Day
13h 25m
Tomorrow will be 2m 29s longer.
Waning Gibbous, 84% of the Moon is Illuminated
Apr 18
Waning Gibbous
Apr 22
Last Quarter
Apr 29
New
May 6
First Quarter
May 14
Full

Yesterday's Extremes

Country Highs Country Lows

Community

  • Cloudy spring view
    Cloudy spring view
  • Old barn
    Old barn
  • What's for Lunch?
    What's for Lunch?
  • SUNRISE THROUGH THE TREES.
    SUNRISE THROUGH THE TREES.
  • Dog Wood Blossoms
    Dog Wood Blossoms

WunderPhotos

Upload Photos

1,702,549 photos uploaded!

WunderBlogs® & News

Nearby

Snow Depth

Not available.

Coastal Water Temperatures

Place Temperature
No Stations Reporting

Earthquake Activity

City Distance Mag. Time & Date
No recent earthquake activity has been reported nearby.
Minimum magnitude displayed is 2.5.

Nearby Weather Stations

Station Location Temp. Windchill Dew Point Humidity Wind Precip. Elev Updated Type
Cayyolu, Ankara 45.1 °F 45 °F 35 °F 67% ESE  at  0.0 mph 0.00 in / hr 3114 ft 3:43 AM EEST Rapid Fire

Show More Stations Show Fewer Stations

What do you think?

We're not finished. Please let us know what you like, what you don't like, and what you are still missing.